sensor_id;sensor_type;location;lat;lon;timestamp;P1;durP1;ratioP1;P2;durP2;ratioP2
5225;SDS011;2632;51.666;7.146;2023-06-14T00:01:30;10.40;;;5.10;;
5225;SDS011;2632;51.666;7.146;2023-06-14T00:04:00;7.67;;;4.87;;
5225;SDS011;2632;51.666;7.146;2023-06-14T00:06:28;7.10;;;5.33;;
5225;SDS011;2632;51.666;7.146;2023-06-14T00:08:55;6.77;;;4.80;;
5225;SDS011;2632;51.666;7.146;2023-06-14T00:11:22;5.13;;;4.50;;
5225;SDS011;2632;51.666;7.146;2023-06-14T00:13:48;11.67;;;5.20;;
5225;SDS011;2632;51.666;7.146;2023-06-14T00:16:15;7.00;;;4.70;;
5225;SDS011;2632;51.666;7.146;2023-06-14T00:18:43;6.33;;;4.63;;
5225;SDS011;2632;51.666;7.146;2023-06-14T00:21:09;10.07;;;4.60;;
5225;SDS011;2632;51.666;7.146;2023-06-14T00:23:36;7.60;;;5.00;;
5225;SDS011;2632;51.666;7.146;2023-06-14T00:26:03;8.43;;;4.70;;
5225;SDS011;2632;51.666;7.146;2023-06-14T00:28:29;7.87;;;4.90;;
5225;SDS011;2632;51.666;7.146;2023-06-14T00:30:56;7.10;;;4.67;;
5225;SDS011;2632;51.666;7.146;2023-06-14T00:33:23;10.80;;;4.30;;
5225;SDS011;2632;51.666;7.146;2023-06-14T00:35:50;9.70;;;4.90;;
5225;SDS011;2632;51.666;7.146;2023-06-14T00:38:20;6.40;;;4.47;;
5225;SDS011;2632;51.666;7.146;2023-06-14T00:40:47;5.90;;;4.13;;
5225;SDS011;2632;51.666;7.146;2023-06-14T00:43:13;6.90;;;4.20;;
5225;SDS011;2632;51.666;7.146;2023-06-14T00:45:40;10.80;;;4.60;;
5225;SDS011;2632;51.666;7.146;2023-06-14T00:48:07;6.40;;;4.03;;
5225;SDS011;2632;51.666;7.146;2023-06-14T00:50:35;7.07;;;4.03;;
5225;SDS011;2632;51.666;7.146;2023-06-14T00:53:02;7.10;;;4.90;;
5225;SDS011;2632;51.666;7.146;2023-06-14T00:55:29;5.67;;;3.93;;
5225;SDS011;2632;51.666;7.146;2023-06-14T00:57:56;5.63;;;4.53;;
5225;SDS011;2632;51.666;7.146;2023-06-14T01:00:23;6.77;;;4.30;;
5225;SDS011;2632;51.666;7.146;2023-06-14T01:02:49;4.80;;;3.90;;
5225;SDS011;2632;51.666;7.146;2023-06-14T01:05:16;6.03;;;4.10;;
5225;SDS011;2632;51.666;7.146;2023-06-14T01:10:35;5.13;;;4.10;;
5225;SDS011;2632;51.666;7.146;2023-06-14T01:13:27;4.10;;;3.70;;
5225;SDS011;2632;51.666;7.146;2023-06-14T01:15:59;8.70;;;3.93;;
5225;SDS011;2632;51.666;7.146;2023-06-14T01:18:27;10.67;;;3.77;;
5225;SDS011;2632;51.666;7.146;2023-06-14T01:20:55;7.00;;;4.10;;
5225;SDS011;2632;51.666;7.146;2023-06-14T01:23:23;6.30;;;4.43;;
5225;SDS011;2632;51.666;7.146;2023-06-14T01:25:51;6.27;;;4.03;;
5225;SDS011;2632;51.666;7.146;2023-06-14T01:28:21;7.70;;;3.90;;
5225;SDS011;2632;51.666;7.146;2023-06-14T01:30:49;5.37;;;3.60;;
5225;SDS011;2632;51.666;7.146;2023-06-14T01:33:21;5.23;;;4.13;;
5225;SDS011;2632;51.666;7.146;2023-06-14T01:35:50;4.03;;;3.33;;
5225;SDS011;2632;51.666;7.146;2023-06-14T01:38:19;4.80;;;3.40;;
5225;SDS011;2632;51.666;7.146;2023-06-14T01:40:47;5.20;;;3.87;;
5225;SDS011;2632;51.666;7.146;2023-06-14T01:43:16;5.70;;;3.50;;
5225;SDS011;2632;51.666;7.146;2023-06-14T01:45:45;4.10;;;3.70;;
5225;SDS011;2632;51.666;7.146;2023-06-14T01:48:14;4.83;;;3.80;;
5225;SDS011;2632;51.666;7.146;2023-06-14T01:50:41;5.73;;;4.13;;
5225;SDS011;2632;51.666;7.146;2023-06-14T01:53:08;7.80;;;3.77;;
5225;SDS011;2632;51.666;7.146;2023-06-14T01:55:36;8.13;;;3.80;;
5225;SDS011;2632;51.666;7.146;2023-06-14T01:58:04;4.77;;;3.80;;
5225;SDS011;2632;51.666;7.146;2023-06-14T02:00:31;6.13;;;3.50;;
5225;SDS011;2632;51.666;7.146;2023-06-14T02:02:58;11.33;;;3.80;;
5225;SDS011;2632;51.666;7.146;2023-06-14T02:05:24;3.80;;;3.10;;
5225;SDS011;2632;51.666;7.146;2023-06-14T02:07:51;3.50;;;3.00;;
5225;SDS011;2632;51.666;7.146;2023-06-14T02:10:20;5.40;;;3.50;;
5225;SDS011;2632;51.666;7.146;2023-06-14T02:12:46;7.83;;;3.73;;
5225;SDS011;2632;51.666;7.146;2023-06-14T02:15:13;7.67;;;3.53;;
5225;SDS011;2632;51.666;7.146;2023-06-14T02:17:43;5.03;;;3.50;;
5225;SDS011;2632;51.666;7.146;2023-06-14T02:20:11;4.17;;;3.43;;
5225;SDS011;2632;51.666;7.146;2023-06-14T02:22:38;6.07;;;3.93;;
5225;SDS011;2632;51.666;7.146;2023-06-14T02:25:05;6.83;;;3.33;;
5225;SDS011;2632;51.666;7.146;2023-06-14T02:27:33;5.87;;;3.50;;
5225;SDS011;2632;51.666;7.146;2023-06-14T02:30:02;4.70;;;3.43;;
5225;SDS011;2632;51.666;7.146;2023-06-14T02:32:29;6.03;;;3.93;;
5225;SDS011;2632;51.666;7.146;2023-06-14T02:34:56;5.47;;;3.30;;
5225;SDS011;2632;51.666;7.146;2023-06-14T02:37:23;5.37;;;3.57;;
5225;SDS011;2632;51.666;7.146;2023-06-14T02:39:50;5.20;;;3.20;;
5225;SDS011;2632;51.666;7.146;2023-06-14T02:42:16;5.87;;;3.60;;
5225;SDS011;2632;51.666;7.146;2023-06-14T02:44:43;5.10;;;3.87;;
5225;SDS011;2632;51.666;7.146;2023-06-14T02:47:11;8.10;;;3.50;;
5225;SDS011;2632;51.666;7.146;2023-06-14T02:49:37;5.93;;;3.50;;
5225;SDS011;2632;51.666;7.146;2023-06-14T02:52:04;6.33;;;3.57;;
5225;SDS011;2632;51.666;7.146;2023-06-14T02:54:35;4.57;;;3.37;;
5225;SDS011;2632;51.666;7.146;2023-06-14T02:57:02;7.10;;;3.40;;
5225;SDS011;2632;51.666;7.146;2023-06-14T02:59:28;5.27;;;3.23;;
5225;SDS011;2632;51.666;7.146;2023-06-14T03:01:55;7.53;;;3.23;;
5225;SDS011;2632;51.666;7.146;2023-06-14T03:04:22;5.77;;;3.20;;
5225;SDS011;2632;51.666;7.146;2023-06-14T03:06:52;3.10;;;2.80;;
5225;SDS011;2632;51.666;7.146;2023-06-14T03:09:20;8.57;;;3.63;;
5225;SDS011;2632;51.666;7.146;2023-06-14T03:11:47;8.33;;;3.90;;
5225;SDS011;2632;51.666;7.146;2023-06-14T03:14:13;6.87;;;2.90;;
5225;SDS011;2632;51.666;7.146;2023-06-14T03:16:40;5.70;;;3.10;;
5225;SDS011;2632;51.666;7.146;2023-06-14T03:19:07;8.13;;;3.77;;
5225;SDS011;2632;51.666;7.146;2023-06-14T03:21:34;4.73;;;3.80;;
5225;SDS011;2632;51.666;7.146;2023-06-14T03:24:01;7.97;;;3.20;;
5225;SDS011;2632;51.666;7.146;2023-06-14T03:26:29;6.00;;;3.10;;
5225;SDS011;2632;51.666;7.146;2023-06-14T03:28:57;4.03;;;2.93;;
5225;SDS011;2632;51.666;7.146;2023-06-14T03:31:23;9.03;;;3.20;;
5225;SDS011;2632;51.666;7.146;2023-06-14T03:33:50;5.63;;;3.40;;
5225;SDS011;2632;51.666;7.146;2023-06-14T03:36:17;6.23;;;3.37;;
5225;SDS011;2632;51.666;7.146;2023-06-14T03:38:43;3.90;;;3.20;;
5225;SDS011;2632;51.666;7.146;2023-06-14T03:41:10;5.50;;;3.50;;
5225;SDS011;2632;51.666;7.146;2023-06-14T03:43:37;7.13;;;3.47;;
5225;SDS011;2632;51.666;7.146;2023-06-14T03:46:03;5.73;;;3.53;;
5225;SDS011;2632;51.666;7.146;2023-06-14T03:48:30;4.07;;;3.40;;
5225;SDS011;2632;51.666;7.146;2023-06-14T03:50:57;4.60;;;3.67;;
5225;SDS011;2632;51.666;7.146;2023-06-14T03:53:26;4.00;;;2.83;;
5225;SDS011;2632;51.666;7.146;2023-06-14T03:55:55;9.37;;;3.40;;
5225;SDS011;2632;51.666;7.146;2023-06-14T03:58:23;3.03;;;2.70;;
5225;SDS011;2632;51.666;7.146;2023-06-14T04:00:49;4.83;;;2.83;;
5225;SDS011;2632;51.666;7.146;2023-06-14T04:03:16;4.77;;;3.70;;
5225;SDS011;2632;51.666;7.146;2023-06-14T04:05:43;10.37;;;3.20;;
5225;SDS011;2632;51.666;7.146;2023-06-14T04:08:10;9.37;;;3.60;;
5225;SDS011;2632;51.666;7.146;2023-06-14T04:10:40;3.40;;;3.00;;
5225;SDS011;2632;51.666;7.146;2023-06-14T04:13:07;6.37;;;3.40;;
5225;SDS011;2632;51.666;7.146;2023-06-14T04:15:34;8.23;;;3.50;;
5225;SDS011;2632;51.666;7.146;2023-06-14T04:18:01;7.13;;;3.23;;
5225;SDS011;2632;51.666;7.146;2023-06-14T04:20:28;6.47;;;3.37;;
5225;SDS011;2632;51.666;7.146;2023-06-14T04:22:56;6.93;;;3.93;;
5225;SDS011;2632;51.666;7.146;2023-06-14T04:25:23;5.40;;;3.23;;
5225;SDS011;2632;51.666;7.146;2023-06-14T04:27:52;8.90;;;3.50;;
5225;SDS011;2632;51.666;7.146;2023-06-14T04:30:19;6.40;;;3.50;;
5225;SDS011;2632;51.666;7.146;2023-06-14T04:32:47;9.77;;;3.73;;
5225;SDS011;2632;51.666;7.146;2023-06-14T04:35:15;8.00;;;3.60;;
5225;SDS011;2632;51.666;7.146;2023-06-14T04:37:43;3.83;;;3.20;;
5225;SDS011;2632;51.666;7.146;2023-06-14T04:40:11;6.00;;;3.30;;
5225;SDS011;2632;51.666;7.146;2023-06-14T04:42:38;4.47;;;3.23;;
5225;SDS011;2632;51.666;7.146;2023-06-14T04:45:06;19.57;;;4.03;;
5225;SDS011;2632;51.666;7.146;2023-06-14T04:47:34;5.60;;;3.10;;
5225;SDS011;2632;51.666;7.146;2023-06-14T04:50:02;4.60;;;3.40;;
5225;SDS011;2632;51.666;7.146;2023-06-14T04:52:29;7.10;;;3.10;;
5225;SDS011;2632;51.666;7.146;2023-06-14T04:54:57;3.83;;;3.00;;
5225;SDS011;2632;51.666;7.146;2023-06-14T04:57:25;5.40;;;3.13;;
5225;SDS011;2632;51.666;7.146;2023-06-14T04:59:51;6.63;;;4.50;;
5225;SDS011;2632;51.666;7.146;2023-06-14T05:02:22;7.87;;;3.60;;
5225;SDS011;2632;51.666;7.146;2023-06-14T05:04:49;8.90;;;3.63;;
5225;SDS011;2632;51.666;7.146;2023-06-14T05:07:17;8.40;;;3.60;;
5225;SDS011;2632;51.666;7.146;2023-06-14T05:09:44;7.50;;;3.43;;
5225;SDS011;2632;51.666;7.146;2023-06-14T05:12:11;11.00;;;3.77;;
5225;SDS011;2632;51.666;7.146;2023-06-14T05:14:38;7.03;;;3.40;;
5225;SDS011;2632;51.666;7.146;2023-06-14T05:17:05;4.67;;;3.93;;
5225;SDS011;2632;51.666;7.146;2023-06-14T05:19:32;6.07;;;3.20;;
5225;SDS011;2632;51.666;7.146;2023-06-14T05:21:59;4.43;;;3.23;;
5225;SDS011;2632;51.666;7.146;2023-06-14T05:24:26;5.73;;;3.10;;
5225;SDS011;2632;51.666;7.146;2023-06-14T05:26:53;7.33;;;3.33;;
5225;SDS011;2632;51.666;7.146;2023-06-14T05:29:19;5.60;;;3.40;;
5225;SDS011;2632;51.666;7.146;2023-06-14T05:31:46;16.53;;;3.23;;
5225;SDS011;2632;51.666;7.146;2023-06-14T05:34:13;6.63;;;3.20;;
5225;SDS011;2632;51.666;7.146;2023-06-14T05:36:39;4.73;;;3.10;;
5225;SDS011;2632;51.666;7.146;2023-06-14T05:39:06;7.17;;;3.83;;
5225;SDS011;2632;51.666;7.146;2023-06-14T05:41:34;8.37;;;4.23;;
5225;SDS011;2632;51.666;7.146;2023-06-14T05:44:01;9.57;;;3.57;;
5225;SDS011;2632;51.666;7.146;2023-06-14T05:46:27;3.27;;;2.87;;
5225;SDS011;2632;51.666;7.146;2023-06-14T05:48:54;8.13;;;3.50;;
5225;SDS011;2632;51.666;7.146;2023-06-14T05:51:22;5.87;;;3.00;;
5225;SDS011;2632;51.666;7.146;2023-06-14T05:53:51;3.73;;;3.10;;
5225;SDS011;2632;51.666;7.146;2023-06-14T05:56:17;5.30;;;3.27;;
5225;SDS011;2632;51.666;7.146;2023-06-14T05:58:45;4.90;;;3.90;;
5225;SDS011;2632;51.666;7.146;2023-06-14T06:01:13;4.00;;;3.13;;
5225;SDS011;2632;51.666;7.146;2023-06-14T06:03:41;3.80;;;2.80;;
5225;SDS011;2632;51.666;7.146;2023-06-14T06:06:12;11.13;;;4.23;;
5225;SDS011;2632;51.666;7.146;2023-06-14T06:08:39;4.63;;;3.27;;
5225;SDS011;2632;51.666;7.146;2023-06-14T06:11:06;7.10;;;3.43;;
5225;SDS011;2632;51.666;7.146;2023-06-14T06:13:33;4.50;;;3.00;;
5225;SDS011;2632;51.666;7.146;2023-06-14T06:16:02;6.30;;;3.20;;
5225;SDS011;2632;51.666;7.146;2023-06-14T06:18:29;6.00;;;3.00;;
5225;SDS011;2632;51.666;7.146;2023-06-14T06:20:56;7.10;;;3.67;;
5225;SDS011;2632;51.666;7.146;2023-06-14T06:23:23;9.90;;;3.27;;
5225;SDS011;2632;51.666;7.146;2023-06-14T06:25:49;7.07;;;3.40;;
5225;SDS011;2632;51.666;7.146;2023-06-14T06:28:16;5.33;;;3.13;;
5225;SDS011;2632;51.666;7.146;2023-06-14T06:30:43;5.20;;;3.30;;
5225;SDS011;2632;51.666;7.146;2023-06-14T06:33:10;4.37;;;3.10;;
5225;SDS011;2632;51.666;7.146;2023-06-14T06:35:38;4.27;;;3.20;;
5225;SDS011;2632;51.666;7.146;2023-06-14T06:38:04;5.30;;;3.10;;
5225;SDS011;2632;51.666;7.146;2023-06-14T06:40:31;4.23;;;3.40;;
5225;SDS011;2632;51.666;7.146;2023-06-14T06:42:57;7.60;;;3.13;;
5225;SDS011;2632;51.666;7.146;2023-06-14T06:45:24;6.50;;;2.80;;
5225;SDS011;2632;51.666;7.146;2023-06-14T06:47:51;6.80;;;3.00;;
5225;SDS011;2632;51.666;7.146;2023-06-14T06:50:18;5.73;;;3.00;;
5225;SDS011;2632;51.666;7.146;2023-06-14T06:52:46;3.67;;;3.10;;
5225;SDS011;2632;51.666;7.146;2023-06-14T06:55:13;5.60;;;3.13;;
5225;SDS011;2632;51.666;7.146;2023-06-14T06:57:40;3.10;;;2.43;;
5225;SDS011;2632;51.666;7.146;2023-06-14T07:00:07;8.57;;;2.93;;
5225;SDS011;2632;51.666;7.146;2023-06-14T07:02:39;4.20;;;3.00;;
5225;SDS011;2632;51.666;7.146;2023-06-14T07:05:06;5.10;;;3.00;;
5225;SDS011;2632;51.666;7.146;2023-06-14T07:07:34;5.23;;;3.47;;
5225;SDS011;2632;51.666;7.146;2023-06-14T07:10:00;5.70;;;3.20;;
5225;SDS011;2632;51.666;7.146;2023-06-14T07:12:31;5.43;;;3.63;;
5225;SDS011;2632;51.666;7.146;2023-06-14T07:15:01;4.90;;;2.90;;
5225;SDS011;2632;51.666;7.146;2023-06-14T07:17:28;2.93;;;2.50;;
5225;SDS011;2632;51.666;7.146;2023-06-14T07:19:55;2.70;;;2.43;;
5225;SDS011;2632;51.666;7.146;2023-06-14T07:22:22;7.67;;;2.87;;
5225;SDS011;2632;51.666;7.146;2023-06-14T07:24:48;4.00;;;3.10;;
5225;SDS011;2632;51.666;7.146;2023-06-14T07:27:15;5.40;;;2.97;;
5225;SDS011;2632;51.666;7.146;2023-06-14T07:29:42;3.90;;;2.73;;
5225;SDS011;2632;51.666;7.146;2023-06-14T07:32:09;4.17;;;2.80;;
5225;SDS011;2632;51.666;7.146;2023-06-14T07:34:35;3.37;;;2.80;;
5225;SDS011;2632;51.666;7.146;2023-06-14T07:37:02;4.10;;;2.30;;
5225;SDS011;2632;51.666;7.146;2023-06-14T07:39:29;4.33;;;2.73;;
5225;SDS011;2632;51.666;7.146;2023-06-14T07:41:56;8.67;;;3.40;;
5225;SDS011;2632;51.666;7.146;2023-06-14T07:44:22;3.53;;;3.00;;
5225;SDS011;2632;51.666;7.146;2023-06-14T07:46:49;12.23;;;3.17;;
5225;SDS011;2632;51.666;7.146;2023-06-14T07:49:16;3.37;;;3.07;;
5225;SDS011;2632;51.666;7.146;2023-06-14T07:51:43;3.63;;;2.60;;
5225;SDS011;2632;51.666;7.146;2023-06-14T07:54:11;15.70;;;3.00;;
5225;SDS011;2632;51.666;7.146;2023-06-14T07:56:37;4.43;;;2.87;;
5225;SDS011;2632;51.666;7.146;2023-06-14T07:59:04;3.90;;;2.83;;
5225;SDS011;2632;51.666;7.146;2023-06-14T08:01:32;5.63;;;2.67;;
5225;SDS011;2632;51.666;7.146;2023-06-14T08:03:59;2.53;;;2.10;;
5225;SDS011;2632;51.666;7.146;2023-06-14T08:06:26;5.83;;;2.70;;
5225;SDS011;2632;51.666;7.146;2023-06-14T08:08:53;6.30;;;3.03;;
5225;SDS011;2632;51.666;7.146;2023-06-14T08:11:19;2.80;;;2.33;;
5225;SDS011;2632;51.666;7.146;2023-06-14T08:13:46;7.63;;;2.53;;
5225;SDS011;2632;51.666;7.146;2023-06-14T08:16:13;3.43;;;1.93;;
5225;SDS011;2632;51.666;7.146;2023-06-14T08:18:40;4.00;;;2.00;;
5225;SDS011;2632;51.666;7.146;2023-06-14T08:21:07;5.50;;;2.17;;
5225;SDS011;2632;51.666;7.146;2023-06-14T08:23:34;3.60;;;1.97;;
5225;SDS011;2632;51.666;7.146;2023-06-14T08:26:02;2.47;;;2.27;;
5225;SDS011;2632;51.666;7.146;2023-06-14T08:28:30;2.87;;;2.00;;
5225;SDS011;2632;51.666;7.146;2023-06-14T08:30:56;2.13;;;1.93;;
5225;SDS011;2632;51.666;7.146;2023-06-14T08:33:23;2.30;;;1.93;;
5225;SDS011;2632;51.666;7.146;2023-06-14T08:35:50;5.60;;;1.77;;
5225;SDS011;2632;51.666;7.146;2023-06-14T08:38:17;4.10;;;1.90;;
5225;SDS011;2632;51.666;7.146;2023-06-14T08:40:43;2.73;;;2.07;;
5225;SDS011;2632;51.666;7.146;2023-06-14T08:43:13;2.20;;;1.90;;
5225;SDS011;2632;51.666;7.146;2023-06-14T08:45:41;1.83;;;1.73;;
5225;SDS011;2632;51.666;7.146;2023-06-14T08:48:07;2.00;;;1.87;;
5225;SDS011;2632;51.666;7.146;2023-06-14T08:50:35;3.57;;;1.63;;
5225;SDS011;2632;51.666;7.146;2023-06-14T08:53:05;2.87;;;1.73;;
5225;SDS011;2632;51.666;7.146;2023-06-14T08:55:37;2.93;;;1.43;;
5225;SDS011;2632;51.666;7.146;2023-06-14T08:58:09;1.60;;;1.50;;
5225;SDS011;2632;51.666;7.146;2023-06-14T09:00:40;1.67;;;1.37;;
5225;SDS011;2632;51.666;7.146;2023-06-14T09:03:09;4.03;;;1.13;;
5225;SDS011;2632;51.666;7.146;2023-06-14T09:05:39;1.30;;;1.20;;
5225;SDS011;2632;51.666;7.146;2023-06-14T09:08:06;4.60;;;1.83;;
5225;SDS011;2632;51.666;7.146;2023-06-14T09:10:33;2.10;;;1.40;;
5225;SDS011;2632;51.666;7.146;2023-06-14T09:13:01;1.47;;;1.37;;
5225;SDS011;2632;51.666;7.146;2023-06-14T09:15:29;1.40;;;1.30;;
5225;SDS011;2632;51.666;7.146;2023-06-14T09:17:56;1.47;;;1.30;;
5225;SDS011;2632;51.666;7.146;2023-06-14T09:20:24;1.73;;;1.40;;
5225;SDS011;2632;51.666;7.146;2023-06-14T09:22:51;1.63;;;1.20;;
5225;SDS011;2632;51.666;7.146;2023-06-14T09:25:19;2.70;;;1.40;;
5225;SDS011;2632;51.666;7.146;2023-06-14T09:28:05;2.00;;;1.30;;
5225;SDS011;2632;51.666;7.146;2023-06-14T09:30:35;1.50;;;1.40;;
5225;SDS011;2632;51.666;7.146;2023-06-14T09:33:03;1.30;;;0.97;;
5225;SDS011;2632;51.666;7.146;2023-06-14T09:35:33;1.27;;;1.10;;
5225;SDS011;2632;51.666;7.146;2023-06-14T09:38:00;4.40;;;1.17;;
5225;SDS011;2632;51.666;7.146;2023-06-14T09:40:27;1.30;;;1.20;;
5225;SDS011;2632;51.666;7.146;2023-06-14T09:42:54;1.20;;;1.10;;
5225;SDS011;2632;51.666;7.146;2023-06-14T09:45:23;2.50;;;1.10;;
5225;SDS011;2632;51.666;7.146;2023-06-14T09:47:54;1.83;;;0.90;;
5225;SDS011;2632;51.666;7.146;2023-06-14T09:50:33;1.13;;;1.03;;
5225;SDS011;2632;51.666;7.146;2023-06-14T09:53:02;0.70;;;0.70;;
5225;SDS011;2632;51.666;7.146;2023-06-14T09:55:34;1.93;;;1.00;;
5225;SDS011;2632;51.666;7.146;2023-06-14T09:58:04;1.73;;;1.13;;
5225;SDS011;2632;51.666;7.146;2023-06-14T10:00:33;1.33;;;1.13;;
5225;SDS011;2632;51.666;7.146;2023-06-14T10:03:03;1.33;;;1.10;;
5225;SDS011;2632;51.666;7.146;2023-06-14T10:05:36;1.23;;;1.10;;
5225;SDS011;2632;51.666;7.146;2023-06-14T10:08:08;0.80;;;0.80;;
5225;SDS011;2632;51.666;7.146;2023-06-14T10:10:38;1.30;;;1.20;;
5225;SDS011;2632;51.666;7.146;2023-06-14T10:13:06;1.23;;;1.03;;
5225;SDS011;2632;51.666;7.146;2023-06-14T10:18:49;4.67;;;1.33;;
5225;SDS011;2632;51.666;7.146;2023-06-14T10:21:23;1.30;;;1.20;;
5225;SDS011;2632;51.666;7.146;2023-06-14T10:24:04;1.77;;;1.20;;
5225;SDS011;2632;51.666;7.146;2023-06-14T10:26:34;1.30;;;1.20;;
5225;SDS011;2632;51.666;7.146;2023-06-14T10:29:06;1.43;;;1.27;;
5225;SDS011;2632;51.666;7.146;2023-06-14T10:31:41;1.10;;;1.10;;
5225;SDS011;2632;51.666;7.146;2023-06-14T10:34:11;1.33;;;1.00;;
5225;SDS011;2632;51.666;7.146;2023-06-14T10:36:46;1.30;;;1.20;;
5225;SDS011;2632;51.666;7.146;2023-06-14T10:39:29;1.53;;;1.43;;
5225;SDS011;2632;51.666;7.146;2023-06-14T10:41:56;1.30;;;1.20;;
5225;SDS011;2632;51.666;7.146;2023-06-14T10:46:54;1.63;;;1.20;;
5225;SDS011;2632;51.666;7.146;2023-06-14T10:49:36;2.97;;;1.60;;
5225;SDS011;2632;51.666;7.146;2023-06-14T10:52:08;1.23;;;1.20;;
5225;SDS011;2632;51.666;7.146;2023-06-14T10:54:55;1.90;;;1.50;;
5225;SDS011;2632;51.666;7.146;2023-06-14T10:57:25;1.40;;;1.27;;
5225;SDS011;2632;51.666;7.146;2023-06-14T10:59:52;2.50;;;1.50;;
5225;SDS011;2632;51.666;7.146;2023-06-14T11:04:49;3.70;;;1.43;;
5225;SDS011;2632;51.666;7.146;2023-06-14T11:10:38;3.23;;;1.30;;
5225;SDS011;2632;51.666;7.146;2023-06-14T11:13:11;2.17;;;1.40;;
5225;SDS011;2632;51.666;7.146;2023-06-14T11:15:38;6.87;;;2.20;;
5225;SDS011;2632;51.666;7.146;2023-06-14T11:18:09;3.80;;;1.30;;
5225;SDS011;2632;51.666;7.146;2023-06-14T11:20:36;1.30;;;1.20;;
5225;SDS011;2632;51.666;7.146;2023-06-14T11:23:03;1.20;;;1.10;;
5225;SDS011;2632;51.666;7.146;2023-06-14T11:25:30;1.77;;;1.40;;
5225;SDS011;2632;51.666;7.146;2023-06-14T11:27:57;1.90;;;1.73;;
5225;SDS011;2632;51.666;7.146;2023-06-14T11:30:25;1.70;;;1.30;;
5225;SDS011;2632;51.666;7.146;2023-06-14T11:32:53;1.80;;;1.70;;
5225;SDS011;2632;51.666;7.146;2023-06-14T11:35:24;6.33;;;1.67;;
5225;SDS011;2632;51.666;7.146;2023-06-14T11:37:52;7.57;;;1.60;;
5225;SDS011;2632;51.666;7.146;2023-06-14T11:40:26;1.77;;;1.67;;
5225;SDS011;2632;51.666;7.146;2023-06-14T11:43:00;1.50;;;1.40;;
5225;SDS011;2632;51.666;7.146;2023-06-14T11:45:28;1.60;;;1.50;;
5225;SDS011;2632;51.666;7.146;2023-06-14T11:47:56;3.67;;;1.57;;
5225;SDS011;2632;51.666;7.146;2023-06-14T11:50:24;5.03;;;1.37;;
5225;SDS011;2632;51.666;7.146;2023-06-14T11:52:55;1.50;;;1.40;;
5225;SDS011;2632;51.666;7.146;2023-06-14T11:55:23;1.60;;;1.43;;
5225;SDS011;2632;51.666;7.146;2023-06-14T11:57:51;2.93;;;1.90;;
5225;SDS011;2632;51.666;7.146;2023-06-14T12:00:22;2.00;;;1.27;;
5225;SDS011;2632;51.666;7.146;2023-06-14T12:02:55;5.13;;;1.63;;
5225;SDS011;2632;51.666;7.146;2023-06-14T12:05:23;1.60;;;1.50;;
5225;SDS011;2632;51.666;7.146;2023-06-14T12:07:58;1.40;;;1.30;;
5225;SDS011;2632;51.666;7.146;2023-06-14T12:10:28;2.50;;;1.53;;
5225;SDS011;2632;51.666;7.146;2023-06-14T12:12:58;3.03;;;1.70;;
5225;SDS011;2632;51.666;7.146;2023-06-14T12:15:29;2.63;;;1.70;;
5225;SDS011;2632;51.666;7.146;2023-06-14T12:17:56;1.90;;;1.57;;
5225;SDS011;2632;51.666;7.146;2023-06-14T12:20:28;4.10;;;1.90;;
5225;SDS011;2632;51.666;7.146;2023-06-14T12:22:57;2.43;;;1.83;;
5225;SDS011;2632;51.666;7.146;2023-06-14T12:28:07;2.60;;;2.40;;
5225;SDS011;2632;51.666;7.146;2023-06-14T12:30:35;6.23;;;2.30;;
5225;SDS011;2632;51.666;7.146;2023-06-14T12:33:03;2.40;;;2.20;;
5225;SDS011;2632;51.666;7.146;2023-06-14T12:35:31;4.00;;;2.20;;
5225;SDS011;2632;51.666;7.146;2023-06-14T12:37:57;3.03;;;2.20;;
5225;SDS011;2632;51.666;7.146;2023-06-14T12:40:24;2.10;;;2.00;;
5225;SDS011;2632;51.666;7.146;2023-06-14T12:42:51;2.40;;;2.20;;
5225;SDS011;2632;51.666;7.146;2023-06-14T12:45:18;2.70;;;2.03;;
5225;SDS011;2632;51.666;7.146;2023-06-14T12:47:45;3.40;;;1.90;;
5225;SDS011;2632;51.666;7.146;2023-06-14T12:50:11;3.30;;;2.60;;
5225;SDS011;2632;51.666;7.146;2023-06-14T12:52:38;4.70;;;1.90;;
5225;SDS011;2632;51.666;7.146;2023-06-14T12:55:05;4.07;;;2.33;;
5225;SDS011;2632;51.666;7.146;2023-06-14T12:57:32;2.53;;;2.33;;
5225;SDS011;2632;51.666;7.146;2023-06-14T13:00:02;2.60;;;1.90;;
5225;SDS011;2632;51.666;7.146;2023-06-14T13:02:30;2.33;;;2.13;;
5225;SDS011;2632;51.666;7.146;2023-06-14T13:04:57;6.50;;;2.43;;
5225;SDS011;2632;51.666;7.146;2023-06-14T13:07:24;2.60;;;2.40;;
5225;SDS011;2632;51.666;7.146;2023-06-14T13:09:51;2.90;;;2.33;;
5225;SDS011;2632;51.666;7.146;2023-06-14T13:12:18;2.83;;;2.50;;
5225;SDS011;2632;51.666;7.146;2023-06-14T13:14:45;3.03;;;2.17;;
5225;SDS011;2632;51.666;7.146;2023-06-14T13:17:11;3.77;;;2.70;;
5225;SDS011;2632;51.666;7.146;2023-06-14T13:19:38;2.60;;;2.40;;
5225;SDS011;2632;51.666;7.146;2023-06-14T13:22:05;2.00;;;1.90;;
5225;SDS011;2632;51.666;7.146;2023-06-14T13:24:32;2.37;;;2.00;;
5225;SDS011;2632;51.666;7.146;2023-06-14T13:26:58;2.97;;;2.03;;
5225;SDS011;2632;51.666;7.146;2023-06-14T13:29:25;2.20;;;2.10;;
5225;SDS011;2632;51.666;7.146;2023-06-14T13:31:53;7.37;;;2.40;;
5225;SDS011;2632;51.666;7.146;2023-06-14T13:34:20;5.43;;;2.20;;
5225;SDS011;2632;51.666;7.146;2023-06-14T13:36:47;2.70;;;2.50;;
5225;SDS011;2632;51.666;7.146;2023-06-14T13:39:15;3.40;;;2.40;;
5225;SDS011;2632;51.666;7.146;2023-06-14T13:41:42;2.57;;;2.40;;
5225;SDS011;2632;51.666;7.146;2023-06-14T13:44:08;2.87;;;2.30;;
5225;SDS011;2632;51.666;7.146;2023-06-14T13:46:39;2.57;;;2.40;;
5225;SDS011;2632;51.666;7.146;2023-06-14T13:49:06;2.63;;;2.43;;
5225;SDS011;2632;51.666;7.146;2023-06-14T13:51:33;3.53;;;2.63;;
5225;SDS011;2632;51.666;7.146;2023-06-14T13:54:01;2.83;;;2.40;;
5225;SDS011;2632;51.666;7.146;2023-06-14T13:56:27;3.77;;;2.23;;
5225;SDS011;2632;51.666;7.146;2023-06-14T13:58:54;3.47;;;2.93;;
5225;SDS011;2632;51.666;7.146;2023-06-14T14:01:21;5.83;;;2.53;;
5225;SDS011;2632;51.666;7.146;2023-06-14T14:03:48;5.20;;;3.03;;
5225;SDS011;2632;51.666;7.146;2023-06-14T14:06:16;3.00;;;2.80;;
5225;SDS011;2632;51.666;7.146;2023-06-14T14:08:42;2.40;;;2.20;;
5225;SDS011;2632;51.666;7.146;2023-06-14T14:11:10;3.03;;;2.30;;
5225;SDS011;2632;51.666;7.146;2023-06-14T14:13:37;2.63;;;2.40;;
5225;SDS011;2632;51.666;7.146;2023-06-14T14:16:07;4.23;;;2.30;;
5225;SDS011;2632;51.666;7.146;2023-06-14T14:18:34;3.37;;;2.43;;
5225;SDS011;2632;51.666;7.146;2023-06-14T14:21:01;3.00;;;2.70;;
5225;SDS011;2632;51.666;7.146;2023-06-14T14:23:28;4.17;;;2.83;;
5225;SDS011;2632;51.666;7.146;2023-06-14T14:25:55;2.53;;;2.33;;
5225;SDS011;2632;51.666;7.146;2023-06-14T14:28:21;2.80;;;2.50;;
5225;SDS011;2632;51.666;7.146;2023-06-14T14:30:49;2.90;;;2.70;;
5225;SDS011;2632;51.666;7.146;2023-06-14T14:33:15;3.60;;;2.80;;
5225;SDS011;2632;51.666;7.146;2023-06-14T14:35:43;3.17;;;2.90;;
5225;SDS011;2632;51.666;7.146;2023-06-14T14:38:14;4.20;;;2.77;;
5225;SDS011;2632;51.666;7.146;2023-06-14T14:40:44;2.90;;;2.70;;
5225;SDS011;2632;51.666;7.146;2023-06-14T14:43:11;3.90;;;2.30;;
5225;SDS011;2632;51.666;7.146;2023-06-14T14:45:37;3.03;;;2.83;;
5225;SDS011;2632;51.666;7.146;2023-06-14T14:48:04;3.30;;;3.00;;
5225;SDS011;2632;51.666;7.146;2023-06-14T14:50:32;2.60;;;2.40;;
5225;SDS011;2632;51.666;7.146;2023-06-14T14:52:59;5.47;;;2.63;;
5225;SDS011;2632;51.666;7.146;2023-06-14T14:55:29;5.20;;;2.50;;
5225;SDS011;2632;51.666;7.146;2023-06-14T14:57:56;2.50;;;2.30;;
5225;SDS011;2632;51.666;7.146;2023-06-14T15:00:23;2.77;;;2.57;;
5225;SDS011;2632;51.666;7.146;2023-06-14T15:02:50;3.77;;;2.77;;
5225;SDS011;2632;51.666;7.146;2023-06-14T15:05:17;3.23;;;2.83;;
5225;SDS011;2632;51.666;7.146;2023-06-14T15:07:43;2.80;;;2.60;;
5225;SDS011;2632;51.666;7.146;2023-06-14T15:10:11;3.93;;;2.97;;
5225;SDS011;2632;51.666;7.146;2023-06-14T15:12:38;4.50;;;2.60;;
5225;SDS011;2632;51.666;7.146;2023-06-14T15:15:05;2.97;;;2.67;;
5225;SDS011;2632;51.666;7.146;2023-06-14T15:17:32;3.10;;;2.40;;
5225;SDS011;2632;51.666;7.146;2023-06-14T15:19:59;2.60;;;2.40;;
5225;SDS011;2632;51.666;7.146;2023-06-14T15:22:25;3.63;;;2.67;;
5225;SDS011;2632;51.666;7.146;2023-06-14T15:24:52;2.83;;;2.63;;
5225;SDS011;2632;51.666;7.146;2023-06-14T15:27:19;3.10;;;2.90;;
5225;SDS011;2632;51.666;7.146;2023-06-14T15:29:46;2.70;;;2.50;;
5225;SDS011;2632;51.666;7.146;2023-06-14T15:32:16;2.70;;;2.50;;
5225;SDS011;2632;51.666;7.146;2023-06-14T15:34:43;5.40;;;2.60;;
5225;SDS011;2632;51.666;7.146;2023-06-14T15:37:10;3.00;;;2.70;;